sensor_id;sensor_type;location;lat;lon;timestamp;pressure;altitude;pressure_sealevel;temperature;humidity
33949;BME280;20229;49.856;19.030;2024-02-15T00:04:29;102111.19;;;7.23;89.87
33949;BME280;20229;49.856;19.030;2024-02-15T00:09:44;102114.84;;;7.22;90.44
33949;BME280;20229;49.856;19.030;2024-02-15T00:14:58;102115.63;;;7.27;90.74
33949;BME280;20229;49.856;19.030;2024-02-15T00:20:12;102124.66;;;7.29;90.87
33949;BME280;20229;49.856;19.030;2024-02-15T00:25:29;102120.01;;;7.34;90.91
33949;BME280;20229;49.856;19.030;2024-02-15T00:30:43;102119.07;;;7.35;90.96
33949;BME280;20229;49.856;19.030;2024-02-15T00:35:57;102135.25;;;7.41;91.03
33949;BME280;20229;49.856;19.030;2024-02-15T00:41:11;102129.82;;;7.41;90.92
33949;BME280;20229;49.856;19.030;2024-02-15T00:46:25;102139.74;;;7.43;90.87
33949;BME280;20229;49.856;19.030;2024-02-15T00:51:42;102148.78;;;7.46;91.03
33949;BME280;20229;49.856;19.030;2024-02-15T00:56:56;102146.90;;;7.48;91.23
33949;BME280;20229;49.856;19.030;2024-02-15T01:02:10;102143.24;;;7.49;91.64
33949;BME280;20229;49.856;19.030;2024-02-15T01:07:25;102152.23;;;7.52;91.29
33949;BME280;20229;49.856;19.030;2024-02-15T01:12:43;102154.98;;;7.51;91.43
33949;BME280;20229;49.856;19.030;2024-02-15T01:17:57;102141.36;;;7.52;91.36
33949;BME280;20229;49.856;19.030;2024-02-15T01:23:11;102146.79;;;7.52;91.69
33949;BME280;20229;49.856;19.030;2024-02-15T01:28:26;102145.83;;;7.56;91.44
33949;BME280;20229;49.856;19.030;2024-02-15T01:33:40;102139.41;;;7.59;91.60
33949;BME280;20229;49.856;19.030;2024-02-15T01:38:55;102129.37;;;7.62;90.82
33949;BME280;20229;49.856;19.030;2024-02-15T01:44:09;102125.63;;;7.68;91.15
33949;BME280;20229;49.856;19.030;2024-02-15T01:49:27;102117.30;;;7.76;89.97
33949;BME280;20229;49.856;19.030;2024-02-15T01:54:41;102125.21;;;7.88;89.40
33949;BME280;20229;49.856;19.030;2024-02-15T01:59:55;102114.10;;;7.97;88.87
33949;BME280;20229;49.856;19.030;2024-02-15T02:05:09;102107.59;;;8.04;88.49
33949;BME280;20229;49.856;19.030;2024-02-15T02:10:25;102108.28;;;8.12;87.94
33949;BME280;20229;49.856;19.030;2024-02-15T02:15:40;102096.38;;;8.18;87.79
33949;BME280;20229;49.856;19.030;2024-02-15T02:20:54;102105.30;;;8.23;87.95
33949;BME280;20229;49.856;19.030;2024-02-15T02:26:08;102098.07;;;8.24;87.71
33949;BME280;20229;49.856;19.030;2024-02-15T02:31:24;102112.42;;;8.30;87.87
33949;BME280;20229;49.856;19.030;2024-02-15T02:36:38;102105.98;;;8.33;87.27
33949;BME280;20229;49.856;19.030;2024-02-15T02:41:56;102114.09;;;8.37;87.30
33949;BME280;20229;49.856;19.030;2024-02-15T02:47:10;102103.19;;;8.36;88.10
33949;BME280;20229;49.856;19.030;2024-02-15T02:52:24;102101.32;;;8.40;88.18
33949;BME280;20229;49.856;19.030;2024-02-15T02:57:38;102098.65;;;8.38;88.24
33949;BME280;20229;49.856;19.030;2024-02-15T03:02:52;102087.80;;;8.35;88.05
33949;BME280;20229;49.856;19.030;2024-02-15T03:08:11;102096.91;;;8.34;87.53
33949;BME280;20229;49.856;19.030;2024-02-15T03:13:30;102098.69;;;8.35;87.25
33949;BME280;20229;49.856;19.030;2024-02-15T03:18:44;102092.31;;;8.36;86.82
33949;BME280;20229;49.856;19.030;2024-02-15T03:23:58;102095.91;;;8.36;86.85
33949;BME280;20229;49.856;19.030;2024-02-15T03:29:12;102088.74;;;8.34;86.48
33949;BME280;20229;49.856;19.030;2024-02-15T03:34:27;102081.47;;;8.34;86.29
33949;BME280;20229;49.856;19.030;2024-02-15T03:39:41;102081.49;;;8.33;86.22
33949;BME280;20229;49.856;19.030;2024-02-15T03:44:56;102086.92;;;8.34;85.94
33949;BME280;20229;49.856;19.030;2024-02-15T03:50:10;102086.02;;;8.34;85.87
33949;BME280;20229;49.856;19.030;2024-02-15T03:55:27;102093.24;;;8.35;85.82
33949;BME280;20229;49.856;19.030;2024-02-15T04:00:41;102090.54;;;8.33;85.91
33949;BME280;20229;49.856;19.030;2024-02-15T04:05:55;102082.38;;;8.33;85.81
33949;BME280;20229;49.856;19.030;2024-02-15T04:11:09;102085.16;;;8.32;85.58
33949;BME280;20229;49.856;19.030;2024-02-15T04:16:26;102080.66;;;8.31;85.89
33949;BME280;20229;49.856;19.030;2024-02-15T04:21:41;102085.16;;;8.32;85.50
33949;BME280;20229;49.856;19.030;2024-02-15T04:26:57;102090.54;;;8.33;85.71
33949;BME280;20229;49.856;19.030;2024-02-15T04:32:12;102086.92;;;8.34;85.36
33949;BME280;20229;49.856;19.030;2024-02-15T04:37:28;102080.48;;;8.37;84.97
33949;BME280;20229;49.856;19.030;2024-02-15T04:42:46;102082.36;;;8.35;85.23
33949;BME280;20229;49.856;19.030;2024-02-15T04:48:01;102084.16;;;8.37;84.83
33949;BME280;20229;49.856;19.030;2024-02-15T04:53:18;102083.21;;;8.38;85.03
33949;BME280;20229;49.856;19.030;2024-02-15T04:58:32;102086.77;;;8.41;84.82
33949;BME280;20229;49.856;19.030;2024-02-15T05:03:50;102087.77;;;8.38;84.61
33949;BME280;20229;49.856;19.030;2024-02-15T05:09:04;102103.10;;;8.41;84.24
33949;BME280;20229;49.856;19.030;2024-02-15T05:14:24;102106.73;;;8.41;84.43
33949;BME280;20229;49.856;19.030;2024-02-15T05:19:39;102109.36;;;8.44;84.46
33949;BME280;20229;49.856;19.030;2024-02-15T05:24:55;102116.62;;;8.45;84.05
33949;BME280;20229;49.856;19.030;2024-02-15T05:30:09;102118.32;;;8.49;83.98
33949;BME280;20229;49.856;19.030;2024-02-15T05:35:25;102126.48;;;8.49;84.03
33949;BME280;20229;49.856;19.030;2024-02-15T05:40:43;102116.43;;;8.51;84.02
33949;BME280;20229;49.856;19.030;2024-02-15T05:45:57;102122.80;;;8.52;83.97
33949;BME280;20229;49.856;19.030;2024-02-15T05:51:13;102123.62;;;8.55;83.85
33949;BME280;20229;49.856;19.030;2024-02-15T05:56:27;102132.69;;;8.54;84.02
33949;BME280;20229;49.856;19.030;2024-02-15T06:01:42;102133.56;;;8.56;83.96
33949;BME280;20229;49.856;19.030;2024-02-15T06:06:58;102133.56;;;8.56;84.18
33949;BME280;20229;49.856;19.030;2024-02-15T06:12:14;102147.16;;;8.56;83.91
33949;BME280;20229;49.856;19.030;2024-02-15T06:17:28;102155.34;;;8.56;83.79
33949;BME280;20229;49.856;19.030;2024-02-15T06:22:42;102166.10;;;8.61;83.55
33949;BME280;20229;49.856;19.030;2024-02-15T06:27:56;102164.24;;;8.63;84.01
33949;BME280;20229;49.856;19.030;2024-02-15T06:33:49;102180.59;;;8.63;84.08
33949;BME280;20229;49.856;19.030;2024-02-15T06:39:18;102183.11;;;8.71;83.72
33949;BME280;20229;49.856;19.030;2024-02-15T06:44:47;102172.98;;;8.76;83.61
33949;BME280;20229;49.856;19.030;2024-02-15T06:50:01;102187.32;;;8.84;83.53
33949;BME280;20229;49.856;19.030;2024-02-15T06:55:14;102170.85;;;8.89;83.01
33949;BME280;20229;49.856;19.030;2024-02-15T07:00:28;102175.14;;;8.97;82.78
33949;BME280;20229;49.856;19.030;2024-02-15T07:05:44;102167.77;;;9.02;82.49
33949;BME280;20229;49.856;19.030;2024-02-15T07:11:00;102180.20;;;9.13;82.40
33949;BME280;20229;49.856;19.030;2024-02-15T07:16:17;102189.06;;;9.21;82.04
33949;BME280;20229;49.856;19.030;2024-02-15T07:21:31;102189.71;;;9.30;81.64
33949;BME280;20229;49.856;19.030;2024-02-15T07:26:45;102188.55;;;9.39;81.44
33949;BME280;20229;49.856;19.030;2024-02-15T07:32:04;102189.24;;;9.47;81.12
33949;BME280;20229;49.856;19.030;2024-02-15T07:37:17;102177.30;;;9.51;80.93
33949;BME280;20229;49.856;19.030;2024-02-15T07:42:36;102187.93;;;9.61;80.77
33949;BME280;20229;49.856;19.030;2024-02-15T07:47:53;102184.00;;;9.71;80.53
33949;BME280;20229;49.856;19.030;2024-02-15T07:53:07;102193.47;;;9.89;80.18
33949;BME280;20229;49.856;19.030;2024-02-15T07:58:23;102191.12;;;10.06;79.74
33949;BME280;20229;49.856;19.030;2024-02-15T08:03:37;102190.55;;;10.26;79.37
33949;BME280;20229;49.856;19.030;2024-02-15T08:09:00;102184.60;;;10.41;78.55
33949;BME280;20229;49.856;19.030;2024-02-15T08:14:14;102189.26;;;10.66;78.08
33949;BME280;20229;49.856;19.030;2024-02-15T08:19:28;102188.24;;;10.96;77.34
33949;BME280;20229;49.856;19.030;2024-02-15T08:24:42;102175.87;;;11.36;76.47
33949;BME280;20229;49.856;19.030;2024-02-15T08:29:57;102179.16;;;11.71;75.40
33949;BME280;20229;49.856;19.030;2024-02-15T08:35:12;102171.12;;;11.91;74.63
33949;BME280;20229;49.856;19.030;2024-02-15T08:40:26;102164.49;;;11.97;73.94
33949;BME280;20229;49.856;19.030;2024-02-15T08:45:42;102168.07;;;11.99;74.52
33949;BME280;20229;49.856;19.030;2024-02-15T08:50:59;102167.15;;;12.22;73.78
33949;BME280;20229;49.856;19.030;2024-02-15T08:56:13;102172.28;;;12.53;74.00
33949;BME280;20229;49.856;19.030;2024-02-15T09:01:27;102161.01;;;12.83;73.19
33949;BME280;20229;49.856;19.030;2024-02-15T09:06:40;102159.24;;;13.02;71.69
33949;BME280;20229;49.856;19.030;2024-02-15T09:11:56;102156.47;;;13.24;72.41
33949;BME280;20229;49.856;19.030;2024-02-15T09:17:10;102157.07;;;13.72;71.72
33949;BME280;20229;49.856;19.030;2024-02-15T09:22:24;102155.29;;;14.27;70.29
33949;BME280;20229;49.856;19.030;2024-02-15T09:27:38;102163.14;;;14.73;66.47
33949;BME280;20229;49.856;19.030;2024-02-15T09:32:51;102155.98;;;15.05;64.91
33949;BME280;20229;49.856;19.030;2024-02-15T09:38:05;102161.98;;;15.48;64.77
33949;BME280;20229;49.856;19.030;2024-02-15T09:43:19;102159.54;;;15.59;64.24
33949;BME280;20229;49.856;19.030;2024-02-15T09:48:34;102158.89;;;15.71;63.38
33949;BME280;20229;49.856;19.030;2024-02-15T09:53:52;102156.09;;;15.89;63.02
33949;BME280;20229;49.856;19.030;2024-02-15T09:59:08;102156.91;;;15.91;61.94
33949;BME280;20229;49.856;19.030;2024-02-15T10:04:23;102154.34;;;16.04;59.56
33949;BME280;20229;49.856;19.030;2024-02-15T10:13:13;102151.85;;;15.99;60.84
33949;BME280;20229;49.856;19.030;2024-02-15T10:18:37;102151.47;;;15.89;61.29
33949;BME280;20229;49.856;19.030;2024-02-15T10:29:19;102150.57;;;15.73;62.25
33949;BME280;20229;49.856;19.030;2024-02-15T10:34:34;102146.66;;;15.77;62.18
33949;BME280;20229;49.856;19.030;2024-02-15T10:40:04;102133.61;;;15.81;61.86
33949;BME280;20229;49.856;19.030;2024-02-15T10:45:15;102138.85;;;15.85;61.04
33949;BME280;20229;49.856;19.030;2024-02-15T10:50:32;102136.81;;;15.89;60.69
33949;BME280;20229;49.856;19.030;2024-02-15T10:55:53;102138.52;;;15.91;61.00
33949;BME280;20229;49.856;19.030;2024-02-15T11:01:12;102134.10;;;16.05;61.71
33949;BME280;20229;49.856;19.030;2024-02-15T11:06:33;102130.90;;;16.12;60.64
33949;BME280;20229;49.856;19.030;2024-02-15T11:11:48;102129.48;;;16.21;60.67
33949;BME280;20229;49.856;19.030;2024-02-15T11:17:07;102118.64;;;16.34;58.95
33949;BME280;20229;49.856;19.030;2024-02-15T11:22:26;102116.67;;;16.36;59.42
33949;BME280;20229;49.856;19.030;2024-02-15T11:27:40;102107.27;;;16.40;60.27
33949;BME280;20229;49.856;19.030;2024-02-15T11:32:56;102107.27;;;16.40;58.66
33949;BME280;20229;49.856;19.030;2024-02-15T11:38:27;102100.94;;;16.38;58.80
33949;BME280;20229;49.856;19.030;2024-02-15T11:49:29;102090.27;;;16.32;59.49
33949;BME280;20229;49.856;19.030;2024-02-15T11:54:43;102071.37;;;16.25;59.11
33949;BME280;20229;49.856;19.030;2024-02-15T11:59:58;102069.56;;;16.24;59.42
33949;BME280;20229;49.856;19.030;2024-02-15T12:05:24;102065.58;;;16.30;59.18
33949;BME280;20229;49.856;19.030;2024-02-15T12:10:57;102063.88;;;16.28;58.94
33949;BME280;20229;49.856;19.030;2024-02-15T12:16:23;102067.63;;;16.27;58.14
33949;BME280;20229;49.856;19.030;2024-02-15T12:21:49;102060.34;;;16.25;59.15
33949;BME280;20229;49.856;19.030;2024-02-15T12:27:03;102060.41;;;16.24;58.31
33949;BME280;20229;49.856;19.030;2024-02-15T12:32:22;102050.28;;;16.24;58.96
33949;BME280;20229;49.856;19.030;2024-02-15T12:37:36;102046.56;;;16.25;58.75
33949;BME280;20229;49.856;19.030;2024-02-15T12:42:53;102048.86;;;16.17;59.87
33949;BME280;20229;49.856;19.030;2024-02-15T12:48:08;102042.75;;;16.12;58.72
33949;BME280;20229;49.856;19.030;2024-02-15T12:53:23;102052.70;;;15.99;58.38
33949;BME280;20229;49.856;19.030;2024-02-15T12:58:37;102041.76;;;15.82;60.07
33949;BME280;20229;49.856;19.030;2024-02-15T13:04:01;102043.26;;;15.71;60.07
33949;BME280;20229;49.856;19.030;2024-02-15T13:09:16;102041.66;;;15.67;61.36
33949;BME280;20229;49.856;19.030;2024-02-15T13:14:30;102040.02;;;15.63;61.56
33949;BME280;20229;49.856;19.030;2024-02-15T13:19:47;102042.67;;;15.65;61.82
33949;BME280;20229;49.856;19.030;2024-02-15T13:25:02;102042.64;;;15.66;61.21
33949;BME280;20229;49.856;19.030;2024-02-15T13:30:17;102043.26;;;15.71;61.37
33949;BME280;20229;49.856;19.030;2024-02-15T13:35:40;102044.41;;;15.67;60.77
33949;BME280;20229;49.856;19.030;2024-02-15T13:40:54;102047.17;;;15.67;61.86
33949;BME280;20229;49.856;19.030;2024-02-15T13:46:12;102045.52;;;15.63;62.45
33949;BME280;20229;49.856;19.030;2024-02-15T13:51:27;102032.74;;;15.62;61.88
33949;BME280;20229;49.856;19.030;2024-02-15T13:56:41;102030.95;;;15.61;62.51
33949;BME280;20229;49.856;19.030;2024-02-15T14:01:55;102038.32;;;15.61;62.83
33949;BME280;20229;49.856;19.030;2024-02-15T14:07:13;102036.01;;;15.53;62.25
33949;BME280;20229;49.856;19.030;2024-02-15T14:12:28;102040.80;;;15.49;62.80
33949;BME280;20229;49.856;19.030;2024-02-15T14:17:43;102029.89;;;15.48;63.25
33949;BME280;20229;49.856;19.030;2024-02-15T14:22:59;102029.17;;;15.44;62.96
33949;BME280;20229;49.856;19.030;2024-02-15T14:28:19;102029.17;;;15.44;63.41
33949;BME280;20229;49.856;19.030;2024-02-15T14:33:33;102034.13;;;15.38;62.61
33949;BME280;20229;49.856;19.030;2024-02-15T14:38:47;102032.03;;;15.25;64.37
33949;BME280;20229;49.856;19.030;2024-02-15T14:44:01;102049.38;;;15.10;64.57
33949;BME280;20229;49.856;19.030;2024-02-15T14:49:16;102037.92;;;15.02;63.80
33949;BME280;20229;49.856;19.030;2024-02-15T14:54:31;102028.12;;;14.96;63.90
33949;BME280;20229;49.856;19.030;2024-02-15T14:59:46;102035.02;;;14.88;64.84
33949;BME280;20229;49.856;19.030;2024-02-15T15:05:01;102038.31;;;14.77;63.80
33949;BME280;20229;49.856;19.030;2024-02-15T15:10:29;102040.16;;;14.59;65.33
33949;BME280;20229;49.856;19.030;2024-02-15T15:16:22;102052.08;;;14.41;65.42
33949;BME280;20229;49.856;19.030;2024-02-15T15:21:38;102042.52;;;14.30;65.67
33949;BME280;20229;49.856;19.030;2024-02-15T15:26:52;102047.83;;;14.16;66.67
33949;BME280;20229;49.856;19.030;2024-02-15T15:32:06;102048.37;;;14.05;66.55
33949;BME280;20229;49.856;19.030;2024-02-15T15:37:22;102048.40;;;13.86;67.80
33949;BME280;20229;49.856;19.030;2024-02-15T15:42:36;102047.44;;;13.69;66.74
33949;BME280;20229;49.856;19.030;2024-02-15T15:47:52;102043.99;;;13.45;67.97
33949;BME280;20229;49.856;19.030;2024-02-15T15:53:06;102052.12;;;13.27;68.18
33949;BME280;20229;49.856;19.030;2024-02-15T15:58:20;102045.82;;;13.05;69.31
33949;BME280;20229;49.856;19.030;2024-02-15T16:03:37;102066.78;;;12.85;69.67
33949;BME280;20229;49.856;19.030;2024-02-15T16:08:53;102066.96;;;12.60;70.37
33949;BME280;20229;49.856;19.030;2024-02-15T16:14:11;102079.59;;;12.42;70.70
33949;BME280;20229;49.856;19.030;2024-02-15T16:19:26;102080.38;;;12.24;71.61
33949;BME280;20229;49.856;19.030;2024-02-15T16:24:43;102087.18;;;12.14;72.31
33949;BME280;20229;49.856;19.030;2024-02-15T16:29:57;102100.03;;;12.12;72.96
33949;BME280;20229;49.856;19.030;2024-02-15T16:35:11;102097.44;;;12.09;73.44
33949;BME280;20229;49.856;19.030;2024-02-15T16:40:28;102109.52;;;12.03;73.66
33949;BME280;20229;49.856;19.030;2024-02-15T16:45:43;102108.75;;;12.00;74.51
33949;BME280;20229;49.856;19.030;2024-02-15T16:50:57;102109.88;;;11.94;74.83
33949;BME280;20229;49.856;19.030;2024-02-15T16:56:16;102114.58;;;11.90;74.52
33949;BME280;20229;49.856;19.030;2024-02-15T17:01:30;102122.98;;;11.86;75.51
33949;BME280;20229;49.856;19.030;2024-02-15T17:06:44;102117.59;;;11.83;75.56
33949;BME280;20229;49.856;19.030;2024-02-15T17:11:58;102120.51;;;11.78;74.80
33949;BME280;20229;49.856;19.030;2024-02-15T17:17:13;102119.74;;;11.75;75.01
33949;BME280;20229;49.856;19.030;2024-02-15T17:22:31;102125.34;;;11.71;75.16
33949;BME280;20229;49.856;19.030;2024-02-15T17:27:46;102129.06;;;11.69;75.40
33949;BME280;20229;49.856;19.030;2024-02-15T17:33:04;102137.38;;;11.66;75.87
33949;BME280;20229;49.856;19.030;2024-02-15T17:38:21;102146.73;;;11.60;76.00
33949;BME280;20229;49.856;19.030;2024-02-15T17:43:36;102148.70;;;11.57;76.78
33949;BME280;20229;49.856;19.030;2024-02-15T17:48:50;102148.81;;;11.54;76.78
33949;BME280;20229;49.856;19.030;2024-02-15T17:54:04;102151.65;;;11.51;77.17
33949;BME280;20229;49.856;19.030;2024-02-15T17:59:18;102155.34;;;11.49;76.97
33949;BME280;20229;49.856;19.030;2024-02-15T18:04:33;102128.52;;;11.36;77.41
33949;BME280;20229;49.856;19.030;2024-02-15T18:09:49;102147.25;;;11.46;77.16
33949;BME280;20229;49.856;19.030;2024-02-15T18:15:08;102149.21;;;11.43;77.32
33949;BME280;20229;49.856;19.030;2024-02-15T18:20:59;102147.59;;;11.37;78.17
33949;BME280;20229;49.856;19.030;2024-02-15T18:26:13;102133.98;;;11.36;78.09
33949;BME280;20229;49.856;19.030;2024-02-15T18:31:28;102138.77;;;11.29;78.71
33949;BME280;20229;49.856;19.030;2024-02-15T18:36:47;102142.35;;;11.31;78.96
33949;BME280;20229;49.856;19.030;2024-02-15T18:42:03;102148.04;;;11.25;79.36
33949;BME280;20229;49.856;19.030;2024-02-15T18:47:20;102151.73;;;11.24;79.56
33949;BME280;20229;49.856;19.030;2024-02-15T18:52:35;102161.03;;;11.18;79.18
33949;BME280;20229;49.856;19.030;2024-02-15T18:57:49;102153.73;;;11.19;78.71
33949;BME280;20229;49.856;19.030;2024-02-15T19:03:04;102157.41;;;11.18;79.04
33949;BME280;20229;49.856;19.030;2024-02-15T19:08:18;102157.41;;;11.18;79.22
33949;BME280;20229;49.856;19.030;2024-02-15T19:13:32;102156.56;;;11.16;79.42
33949;BME280;20229;49.856;19.030;2024-02-15T19:18:46;102170.30;;;11.14;79.62
33949;BME280;20229;49.856;19.030;2024-02-15T19:24:00;102163.09;;;11.12;79.58
33949;BME280;20229;49.856;19.030;2024-02-15T19:29:14;102153.22;;;11.08;79.51
33949;BME280;20229;49.856;19.030;2024-02-15T19:34:28;102162.59;;;11.00;79.38
33949;BME280;20229;49.856;19.030;2024-02-15T19:39:43;102155.44;;;10.96;79.61
33949;BME280;20229;49.856;19.030;2024-02-15T19:45:06;102156.51;;;10.92;79.99
33949;BME280;20229;49.856;19.030;2024-02-15T19:50:20;102153.80;;;10.91;80.19
33949;BME280;20229;49.856;19.030;2024-02-15T19:55:40;102147.76;;;10.81;80.13
33949;BME280;20229;49.856;19.030;2024-02-15T20:00:55;102146.94;;;10.79;80.38
33949;BME280;20229;49.856;19.030;2024-02-15T20:06:09;102149.77;;;10.76;80.33
33949;BME280;20229;49.856;19.030;2024-02-15T20:11:24;102147.99;;;10.75;80.15
33949;BME280;20229;49.856;19.030;2024-02-15T20:16:39;102144.51;;;10.70;80.47
33949;BME280;20229;49.856;19.030;2024-02-15T20:21:59;102133.67;;;10.67;80.60
33949;BME280;20229;49.856;19.030;2024-02-15T20:27:14;102142.94;;;10.63;81.08
33949;BME280;20229;49.856;19.030;2024-02-15T20:32:35;102143.09;;;10.58;80.98
33949;BME280;20229;49.856;19.030;2024-02-15T20:37:48;102138.85;;;10.49;81.17
33949;BME280;20229;49.856;19.030;2024-02-15T20:43:02;102139.30;;;10.36;81.06
33949;BME280;20229;49.856;19.030;2024-02-15T20:48:16;102150.63;;;10.22;81.47
33949;BME280;20229;49.856;19.030;2024-02-15T20:53:30;102135.64;;;10.07;81.89
33949;BME280;20229;49.856;19.030;2024-02-15T20:58:44;102134.26;;;9.92;82.28
33949;BME280;20229;49.856;19.030;2024-02-15T21:03:58;102142.84;;;9.80;82.73
33949;BME280;20229;49.856;19.030;2024-02-15T21:09:12;102137.88;;;9.63;83.01
33949;BME280;20229;49.856;19.030;2024-02-15T21:14:31;102128.87;;;9.61;83.62
33949;BME280;20229;49.856;19.030;2024-02-15T21:19:46;102136.90;;;9.66;83.75
33949;BME280;20229;49.856;19.030;2024-02-15T21:25:00;102126.80;;;9.69;83.96
33949;BME280;20229;49.856;19.030;2024-02-15T21:30:15;102140.46;;;9.68;83.77
33949;BME280;20229;49.856;19.030;2024-02-15T21:35:30;102138.94;;;9.57;84.00
33949;BME280;20229;49.856;19.030;2024-02-15T21:40:44;102115.81;;;9.41;83.73
33949;BME280;20229;49.856;19.030;2024-02-15T21:45:58;102118.88;;;9.29;84.80
33949;BME280;20229;49.856;19.030;2024-02-15T21:51:14;102126.47;;;9.18;84.64
33949;BME280;20229;49.856;19.030;2024-02-15T21:56:28;102130.46;;;9.04;84.93
33949;BME280;20229;49.856;19.030;2024-02-15T22:01:48;102127.06;;;8.96;84.75
33949;BME280;20229;49.856;19.030;2024-02-15T22:07:35;102121.09;;;8.82;85.68
33949;BME280;20229;49.856;19.030;2024-02-15T22:12:49;102127.63;;;8.75;85.96
33949;BME280;20229;49.856;19.030;2024-02-15T22:18:06;102128.85;;;8.63;86.21
33949;BME280;20229;49.856;19.030;2024-02-15T22:23:23;102130.77;;;8.59;86.18
33949;BME280;20229;49.856;19.030;2024-02-15T22:28:37;102134.77;;;8.45;86.71
33949;BME280;20229;49.856;19.030;2024-02-15T22:33:52;102138.56;;;8.36;86.46
33949;BME280;20229;49.856;19.030;2024-02-15T22:39:07;102140.73;;;8.22;86.80
33949;BME280;20229;49.856;19.030;2024-02-15T22:44:23;102140.79;;;8.19;86.96
33949;BME280;20229;49.856;19.030;2024-02-15T22:49:37;102145.48;;;8.12;87.92
33949;BME280;20229;49.856;19.030;2024-02-15T22:54:51;102150.09;;;8.08;88.05
33949;BME280;20229;49.856;19.030;2024-02-15T23:00:06;102149.39;;;8.00;88.51
33949;BME280;20229;49.856;19.030;2024-02-15T23:05:26;102138.63;;;7.96;88.71
33949;BME280;20229;49.856;19.030;2024-02-15T23:10:40;102136.85;;;7.93;88.48
33949;BME280;20229;49.856;19.030;2024-02-15T23:15:53;102130.48;;;7.94;91.87
33949;BME280;20229;49.856;19.030;2024-02-15T23:21:07;102126.91;;;7.92;90.30
33949;BME280;20229;49.856;19.030;2024-02-15T23:26:21;102117.89;;;7.90;90.51
33949;BME280;20229;49.856;19.030;2024-02-15T23:31:35;102115.35;;;7.82;90.46
33949;BME280;20229;49.856;19.030;2024-02-15T23:36:50;102117.36;;;7.74;90.72
33949;BME280;20229;49.856;19.030;2024-02-15T23:42:16;102118.42;;;7.67;90.79
33949;BME280;20229;49.856;19.030;2024-02-15T23:47:30;102113.88;;;7.66;91.94
33949;BME280;20229;49.856;19.030;2024-02-15T23:52:50;102113.05;;;7.62;91.32
33949;BME280;20229;49.856;19.030;2024-02-15T23:58:04;102109.46;;;7.62;91.66
